Terminal Aerodrome Forecast
Issued by NWS

Home | Current Version | Previous Version | Graphics & Text | Print | Product List | Glossary On
Versions: 1 2 3 4 5 6 7 8 9 10 11 12 13 14 15 16 17 18 19 20 21 22 23 24 25 26
000
FTUS42 KMHX 131400 AAB
TAFISO
TAF AMD
KISO 131408Z 1314/1412 00000KT 4SM BR OVC004
      TEMPO 1314/1316 P6SM NSW BKN015
     FM131600 VRB04KT P6SM VCSH OVC020
     FM131800 21005KT P6SM VCTS BKN035CB
      TEMPO 1320/1324 3SM TSRA BKN020CB
     FM140000 20003KT P6SM VCTS OVC035CB
      TEMPO 1400/1404 2SM TSRA OVC020CB
     FM140600 01005KT 2SM BR OVC007
      AMD LTD TO CLD VIS AND WIND=

USA.gov is the U.S. government's official web portal to all federal, state and local government web resources and services.